Time;durP1;ratioP1;P1;durP2;ratioP2;P2;SDS_P1;SDS_P2;PMS_P1;PMS_P2;Temp;Humidity;BMP_temperature;BMP_pressure;BME280_temperature;BME280_humidity;BME280_pressure;Samples;Min_cycle;Max_cycle;Signal;HPM_P1;HPM_P2
2022/05/12 00:01:27;;;;;;;18.05;3.00;;;;;;;;;;4998451;28;20067;-70
2022/05/12 00:03:52;;;;;;;15.20;3.22;;;;;;;;;;4999944;28;20758;-69
2022/05/12 00:06:17;;;;;;;14.85;3.25;;;;;;;;;;5000012;28;20037;-69
2022/05/12 00:08:43;;;;;;;13.52;2.67;;;;;;;;;;5001759;28;20087;-69
2022/05/12 00:11:08;;;;;;;11.95;3.10;;;;;;;;;;5003239;28;20043;-68
2022/05/12 00:13:33;;;;;;;16.75;3.03;;;;;;;;;;5001276;28;20036;-69
2022/05/12 00:15:59;;;;;;;23.05;3.50;;;;;;;;;;5001763;28;22661;-69
2022/05/12 00:18:24;;;;;;;16.80;3.10;;;;;;;;;;5001513;28;21169;-69
2022/05/12 00:20:50;;;;;;;17.77;2.92;;;;;;;;;;5001739;28;20041;-68
2022/05/12 00:23:15;;;;;;;12.80;2.85;;;;;;;;;;5011852;28;20045;-69
2022/05/12 00:25:42;;;;;;;10.50;2.90;;;;;;;;;;5001139;28;20103;-68
2022/05/12 00:28:08;;;;;;;13.85;4.60;;;;;;;;;;4999544;28;20029;-70
2022/05/12 00:30:34;;;;;;;15.88;4.10;;;;;;;;;;5002669;28;20041;-69
2022/05/12 00:33:02;;;;;;;18.95;3.05;;;;;;;;;;5002319;28;20040;-68
2022/05/12 00:35:27;;;;;;;20.95;3.10;;;;;;;;;;5000641;28;20784;-70
2022/05/12 00:37:54;;;;;;;16.70;2.40;;;;;;;;;;5001463;28;20042;-71
2022/05/12 00:40:20;;;;;;;11.57;2.30;;;;;;;;;;5002002;28;20159;-70
2022/05/12 00:42:56;;;;;;;15.90;2.55;;;;;;;;;;5001269;28;20716;-69
2022/05/12 00:45:21;;;;;;;30.38;3.17;;;;;;;;;;5001826;28;20069;-70
2022/05/12 00:47:46;;;;;;;21.45;2.58;;;;;;;;;;4999198;28;20039;-70
2022/05/12 00:50:12;;;;;;;15.65;2.38;;;;;;;;;;5002219;28;20939;-69
2022/05/12 00:52:38;;;;;;;14.65;3.35;;;;;;;;;;5000852;28;20037;-69
2022/05/12 00:55:13;;;;;;;17.65;3.00;;;;;;;;;;5001481;28;20225;-68
2022/05/12 00:57:40;;;;;;;11.40;2.60;;;;;;;;;;5005659;28;20032;-69
2022/05/12 01:00:08;;;;;;;22.92;2.97;;;;;;;;;;5001044;28;20041;-68
2022/05/12 01:02:33;;;;;;;19.88;3.08;;;;;;;;;;5001924;28;20125;-69
2022/05/12 01:04:59;;;;;;;17.30;3.40;;;;;;;;;;5000533;28;20562;-69
2022/05/12 01:07:27;;;;;;;17.33;3.83;;;;;;;;;;5001817;28;20091;-72
2022/05/12 01:09:52;;;;;;;16.90;4.07;;;;;;;;;;4987665;28;20034;-69
2022/05/12 01:12:18;;;;;;;23.02;4.93;;;;;;;;;;5002682;28;20761;-69
2022/05/12 01:14:44;;;;;;;19.15;4.63;;;;;;;;;;5002185;28;21041;-70
2022/05/12 01:17:13;;;;;;;21.70;4.85;;;;;;;;;;4999897;28;20037;-70
2022/05/12 01:19:39;;;;;;;22.58;5.28;;;;;;;;;;5001629;28;20486;-70
2022/05/12 01:22:09;;;;;;;21.88;5.78;;;;;;;;;;5001156;28;20080;-69
2022/05/12 01:24:36;;;;;;;20.75;6.40;;;;;;;;;;5002379;28;20146;-69
2022/05/12 01:27:18;;;;;;;20.60;6.78;;;;;;;;;;5000703;28;20033;-70
2022/05/12 01:29:44;;;;;;;20.92;6.13;;;;;;;;;;5000178;28;20491;-70
2022/05/12 01:32:10;;;;;;;19.92;6.40;;;;;;;;;;5000621;28;20103;-70
2022/05/12 01:34:36;;;;;;;22.05;7.20;;;;;;;;;;4994903;28;20124;-71
2022/05/12 01:37:03;;;;;;;24.67;6.95;;;;;;;;;;4999370;28;20174;-67
2022/05/12 01:39:30;;;;;;;20.08;7.53;;;;;;;;;;5001847;28;20812;-68
2022/05/12 01:41:55;;;;;;;22.90;6.65;;;;;;;;;;4987824;28;20114;-67
2022/05/12 01:44:20;;;;;;;19.08;6.05;;;;;;;;;;4999735;28;20261;-69
2022/05/12 01:46:48;;;;;;;15.07;5.90;;;;;;;;;;5001530;28;20040;-69
2022/05/12 01:49:14;;;;;;;18.02;6.03;;;;;;;;;;4999765;28;20098;-68
2022/05/12 01:51:39;;;;;;;19.30;6.57;;;;;;;;;;4995839;28;20091;-70
2022/05/12 01:54:04;;;;;;;17.02;5.50;;;;;;;;;;4996980;28;20025;-69
2022/05/12 01:56:30;;;;;;;18.83;5.90;;;;;;;;;;4995183;28;20044;-69
2022/05/12 01:59:02;;;;;;;26.42;6.70;;;;;;;;;;4997819;28;20761;-69
2022/05/12 02:01:27;;;;;;;23.25;6.07;;;;;;;;;;4997571;28;20106;-69
2022/05/12 02:03:52;;;;;;;20.85;5.93;;;;;;;;;;4997345;28;20045;-70
2022/05/12 02:06:18;;;;;;;17.23;5.75;;;;;;;;;;4990144;28;20040;-69
2022/05/12 02:08:43;;;;;;;21.65;5.97;;;;;;;;;;4996832;28;20908;-70
2022/05/12 02:11:08;;;;;;;16.85;5.20;;;;;;;;;;4998778;28;20064;-70
2022/05/12 02:13:36;;;;;;;22.02;6.00;;;;;;;;;;4998352;28;20033;-70
2022/05/12 02:16:01;;;;;;;17.90;5.63;;;;;;;;;;5007304;28;20033;-69
2022/05/12 02:18:28;;;;;;;22.38;5.60;;;;;;;;;;4999495;28;20036;-70
2022/05/12 02:20:56;;;;;;;17.50;5.35;;;;;;;;;;5002180;28;20345;-70
2022/05/12 02:23:21;;;;;;;23.30;5.00;;;;;;;;;;5000326;28;20041;-69
2022/05/12 02:25:47;;;;;;;16.88;4.47;;;;;;;;;;4996928;28;20173;-69
2022/05/12 02:28:14;;;;;;;18.90;4.55;;;;;;;;;;4998450;28;20123;-68
2022/05/12 02:30:44;;;;;;;19.55;4.85;;;;;;;;;;5000287;28;20112;-69
2022/05/12 02:33:10;;;;;;;17.85;4.82;;;;;;;;;;4998408;28;20044;-70
2022/05/12 02:35:36;;;;;;;20.30;4.57;;;;;;;;;;4998633;28;20041;-70
2022/05/12 02:38:02;;;;;;;22.33;5.20;;;;;;;;;;4999156;28;20064;-70
2022/05/12 02:40:28;;;;;;;23.73;5.03;;;;;;;;;;4983356;28;20896;-69
2022/05/12 02:42:54;;;;;;;18.55;5.40;;;;;;;;;;4998055;28;20045;-69
2022/05/12 02:45:19;;;;;;;19.42;5.22;;;;;;;;;;4997666;28;20029;-69
2022/05/12 02:47:44;;;;;;;21.83;5.50;;;;;;;;;;5000987;28;20837;-69
2022/05/12 02:50:11;;;;;;;22.13;5.95;;;;;;;;;;4997436;28;20831;-69
2022/05/12 02:52:39;;;;;;;19.20;5.68;;;;;;;;;;4999394;28;20037;-69
2022/05/12 02:55:05;;;;;;;16.23;4.88;;;;;;;;;;4997974;28;20039;-68
2022/05/12 02:57:31;;;;;;;20.33;6.03;;;;;;;;;;4998561;28;20041;-68
2022/05/12 02:59:58;;;;;;;21.05;5.57;;;;;;;;;;4994440;28;20038;-69
2022/05/12 03:02:24;;;;;;;21.88;5.50;;;;;;;;;;4992393;28;20137;-69
2022/05/12 03:04:49;;;;;;;20.10;5.72;;;;;;;;;;4994645;28;20917;-69
2022/05/12 03:07:17;;;;;;;23.33;5.63;;;;;;;;;;5001866;28;20033;-69
2022/05/12 03:09:42;;;;;;;17.42;5.30;;;;;;;;;;5001631;28;20602;-69
2022/05/12 03:12:08;;;;;;;20.98;5.22;;;;;;;;;;5003450;28;20116;-69
2022/05/12 03:14:33;;;;;;;23.67;5.03;;;;;;;;;;5004733;28;20037;-69
2022/05/12 03:16:58;;;;;;;23.33;5.57;;;;;;;;;;5001759;28;20114;-69
2022/05/12 03:19:25;;;;;;;17.60;5.55;;;;;;;;;;5001943;28;20127;-69
2022/05/12 03:21:51;;;;;;;24.02;5.38;;;;;;;;;;5000841;28;20045;-68
2022/05/12 03:24:18;;;;;;;17.08;4.80;;;;;;;;;;5016710;28;20037;-69
2022/05/12 03:26:44;;;;;;;18.65;4.97;;;;;;;;;;4996931;28;21151;-69
2022/05/12 03:29:10;;;;;;;20.33;4.97;;;;;;;;;;5001551;28;20061;-69
2022/05/12 03:31:36;;;;;;;18.65;4.60;;;;;;;;;;5001808;28;20051;-69
2022/05/12 03:34:01;;;;;;;21.40;5.03;;;;;;;;;;4997028;28;20038;-69
2022/05/12 03:36:27;;;;;;;15.32;4.75;;;;;;;;;;5000453;28;20632;-68
2022/05/12 03:38:52;;;;;;;21.25;4.63;;;;;;;;;;5001394;28;20943;-68
2022/05/12 03:41:18;;;;;;;19.10;4.93;;;;;;;;;;4999223;28;20065;-68
2022/05/12 03:46:30;;;;;;;20.27;4.82;;;;;;;;;;5000113;28;20215;-69
2022/05/12 03:48:56;;;;;;;17.77;4.93;;;;;;;;;;5000082;28;20091;-68
2022/05/12 03:51:21;;;;;;;20.95;4.78;;;;;;;;;;5001053;28;20053;-69
2022/05/12 03:53:47;;;;;;;18.85;5.35;;;;;;;;;;4999276;28;20143;-69
2022/05/12 03:56:12;;;;;;;20.85;5.88;;;;;;;;;;4999820;28;22756;-69
2022/05/12 03:58:38;;;;;;;21.20;5.55;;;;;;;;;;5001023;28;20048;-69
2022/05/12 04:01:04;;;;;;;15.90;4.95;;;;;;;;;;5002163;28;20148;-68
2022/05/12 04:03:29;;;;;;;19.85;4.80;;;;;;;;;;5001250;28;20065;-68
2022/05/12 04:05:59;;;;;;;23.38;4.93;;;;;;;;;;5000528;28;20045;-68
2022/05/12 04:08:24;;;;;;;16.38;4.72;;;;;;;;;;4998728;28;20600;-68
2022/05/12 04:10:51;;;;;;;17.52;4.75;;;;;;;;;;5002814;28;20056;-69
2022/05/12 04:13:16;;;;;;;18.77;4.75;;;;;;;;;;5002547;28;20045;-69
2022/05/12 04:15:42;;;;;;;21.25;4.47;;;;;;;;;;4999549;28;20124;-69
2022/05/12 04:18:08;;;;;;;20.30;4.57;;;;;;;;;;4995242;28;20110;-68
2022/05/12 04:20:34;;;;;;;17.48;4.88;;;;;;;;;;5010988;28;20049;-69
2022/05/12 04:23:00;;;;;;;16.05;4.35;;;;;;;;;;4999653;28;20140;-68
2022/05/12 04:25:26;;;;;;;17.63;4.88;;;;;;;;;;5000977;28;21181;-68
2022/05/12 04:27:51;;;;;;;12.65;4.07;;;;;;;;;;4999383;28;20033;-68
2022/05/12 04:30:18;;;;;;;13.65;4.07;;;;;;;;;;5001018;28;20163;-68
2022/05/12 04:32:43;;;;;;;18.70;4.88;;;;;;;;;;5015273;28;20041;-69
2022/05/12 04:35:15;;;;;;;22.88;5.03;;;;;;;;;;5000534;28;20037;-69
2022/05/12 04:37:48;;;;;;;17.20;4.30;;;;;;;;;;5000766;28;20041;-69
2022/05/12 04:40:19;;;;;;;21.17;3.95;;;;;;;;;;4998835;28;20145;-69
2022/05/12 04:42:46;;;;;;;17.90;3.97;;;;;;;;;;4999775;28;20065;-69
2022/05/12 04:45:11;;;;;;;18.02;4.57;;;;;;;;;;5001981;28;20033;-70
2022/05/12 04:47:37;;;;;;;15.57;3.78;;;;;;;;;;4995818;28;20138;-69
2022/05/12 04:50:04;;;;;;;14.45;3.30;;;;;;;;;;5001849;28;20033;-69
2022/05/12 04:52:29;;;;;;;23.70;3.95;;;;;;;;;;4999713;28;20147;-69
2022/05/12 04:54:58;;;;;;;14.32;3.40;;;;;;;;;;4999273;28;20041;-69
2022/05/12 04:57:26;;;;;;;17.33;3.50;;;;;;;;;;4999968;28;20041;-70
2022/05/12 04:59:55;;;;;;;15.57;3.65;;;;;;;;;;4967722;28;22210;-67
2022/05/12 05:02:24;;;;;;;20.45;3.97;;;;;;;;;;4998848;28;20033;-65
2022/05/12 05:04:51;;;;;;;19.23;3.33;;;;;;;;;;5004093;28;20234;-68
2022/05/12 05:07:18;;;;;;;17.42;3.72;;;;;;;;;;4998390;28;20037;-68
2022/05/12 05:09:46;;;;;;;14.88;3.38;;;;;;;;;;4995977;28;20147;-67
2022/05/12 05:12:13;;;;;;;17.77;3.42;;;;;;;;;;4997523;28;20044;-68
2022/05/12 05:14:42;;;;;;;13.13;3.03;;;;;;;;;;4995779;28;20037;-68
2022/05/12 05:17:07;;;;;;;16.42;2.90;;;;;;;;;;4999646;28;22420;-68
2022/05/12 05:19:33;;;;;;;14.30;2.75;;;;;;;;;;4995309;28;21252;-68
2022/05/12 05:21:58;;;;;;;13.60;3.33;;;;;;;;;;5013187;28;20625;-68
2022/05/12 05:24:24;;;;;;;11.68;2.78;;;;;;;;;;4997178;28;20048;-68
2022/05/12 05:26:49;;;;;;;11.55;2.83;;;;;;;;;;4999793;28;20025;-68
2022/05/12 05:29:17;;;;;;;11.93;2.72;;;;;;;;;;4996836;28;20043;-69
2022/05/12 05:31:42;;;;;;;9.18;2.55;;;;;;;;;;4995848;28;20033;-70
2022/05/12 05:34:09;;;;;;;13.57;3.05;;;;;;;;;;4997744;28;20114;-69
2022/05/12 05:36:35;;;;;;;18.95;3.35;;;;;;;;;;4998424;28;20829;-69
2022/05/12 05:39:00;;;;;;;15.80;3.13;;;;;;;;;;4998053;28;20128;-69
2022/05/12 05:41:28;;;;;;;18.00;2.65;;;;;;;;;;4996382;28;20106;-70
2022/05/12 05:43:55;;;;;;;15.38;2.60;;;;;;;;;;4996308;28;20164;-69
2022/05/12 05:46:21;;;;;;;14.18;2.90;;;;;;;;;;4997122;28;20122;-69
2022/05/12 05:48:50;;;;;;;13.55;3.28;;;;;;;;;;4998784;28;20037;-70
2022/05/12 05:53:59;;;;;;;17.40;2.95;;;;;;;;;;4995283;28;20124;-69
2022/05/12 05:56:25;;;;;;;14.43;2.63;;;;;;;;;;4996043;28;20801;-69
2022/05/12 05:58:50;;;;;;;17.63;3.03;;;;;;;;;;4996494;28;20045;-69
2022/05/12 06:01:17;;;;;;;10.55;2.50;;;;;;;;;;4985643;28;21583;-69
2022/05/12 06:03:45;;;;;;;15.25;2.83;;;;;;;;;;4997249;28;20072;-69
2022/05/12 06:06:11;;;;;;;16.40;2.80;;;;;;;;;;4995863;28;20037;-69
2022/05/12 06:08:37;;;;;;;11.95;2.83;;;;;;;;;;5010051;28;22433;-67
2022/05/12 06:11:05;;;;;;;11.73;2.90;;;;;;;;;;4988978;28;20037;-68
2022/05/12 06:13:32;;;;;;;8.68;2.80;;;;;;;;;;4996219;28;20076;-68
2022/05/12 06:15:57;;;;;;;11.60;2.55;;;;;;;;;;4987189;28;20755;-69
2022/05/12 06:18:24;;;;;;;10.88;2.30;;;;;;;;;;4995044;28;20044;-68
2022/05/12 06:20:53;;;;;;;11.85;2.08;;;;;;;;;;4994645;28;20033;-68
2022/05/12 06:23:18;;;;;;;9.90;2.55;;;;;;;;;;4995225;28;20940;-68
2022/05/12 06:25:47;;;;;;;11.80;2.35;;;;;;;;;;4995688;28;20037;-68
2022/05/12 06:28:13;;;;;;;14.20;2.17;;;;;;;;;;4997097;28;20032;-68
2022/05/12 06:30:39;;;;;;;9.70;2.20;;;;;;;;;;4986352;28;20049;-68
2022/05/12 06:33:04;;;;;;;11.63;2.30;;;;;;;;;;5001718;28;20037;-68
2022/05/12 06:35:30;;;;;;;11.65;2.30;;;;;;;;;;4993104;28;20040;-68
2022/05/12 06:37:55;;;;;;;11.27;2.33;;;;;;;;;;4990324;28;20053;-68
2022/05/12 06:40:21;;;;;;;9.15;2.40;;;;;;;;;;5002097;28;20291;-68
2022/05/12 06:42:46;;;;;;;10.35;2.45;;;;;;;;;;4992603;28;20041;-68
2022/05/12 06:45:16;;;;;;;7.05;2.05;;;;;;;;;;4990116;28;20098;-68
2022/05/12 06:47:52;;;;;;;9.25;2.45;;;;;;;;;;4991555;28;20164;-70
2022/05/12 06:50:22;;;;;;;12.18;2.30;;;;;;;;;;4985823;28;20032;-69
2022/05/12 06:52:49;;;;;;;8.13;1.80;;;;;;;;;;4990077;28;20041;-69
2022/05/12 06:55:14;;;;;;;8.57;2.20;;;;;;;;;;4992770;28;20574;-69
2022/05/12 06:57:42;;;;;;;8.70;2.42;;;;;;;;;;4991290;28;20033;-69
2022/05/12 07:00:08;;;;;;;9.25;1.90;;;;;;;;;;4991813;28;20463;-70
2022/05/12 07:02:34;;;;;;;12.43;2.55;;;;;;;;;;4990837;28;20210;-68
2022/05/12 07:04:59;;;;;;;10.13;2.28;;;;;;;;;;4989033;28;20135;-69
2022/05/12 07:07:25;;;;;;;9.93;1.95;;;;;;;;;;4995497;28;20161;-69
2022/05/12 07:09:54;;;;;;;10.38;2.03;;;;;;;;;;4993965;28;20049;-66
2022/05/12 07:12:20;;;;;;;9.57;1.95;;;;;;;;;;4994928;28;22552;-70
2022/05/12 07:14:45;;;;;;;9.30;1.77;;;;;;;;;;4997642;28;20125;-71
2022/05/12 07:17:10;;;;;;;9.85;2.35;;;;;;;;;;4996222;28;20126;-67
2022/05/12 07:19:36;;;;;;;7.90;2.15;;;;;;;;;;4994802;28;20043;-68
2022/05/12 07:27:29;;;;;;;6.72;1.83;;;;;;;;;;4989434;28;20375;-67
2022/05/12 07:29:55;;;;;;;7.25;1.60;;;;;;;;;;4987106;28;20208;-66
2022/05/12 07:32:21;;;;;;;7.20;2.20;;;;;;;;;;4989031;28;20037;-67
2022/05/12 07:34:46;;;;;;;10.60;2.15;;;;;;;;;;4987063;28;20127;-67
2022/05/12 07:37:12;;;;;;;8.75;2.10;;;;;;;;;;4990000;28;20591;-66
2022/05/12 07:39:37;;;;;;;8.63;2.00;;;;;;;;;;4993384;28;20045;-66
2022/05/12 07:42:02;;;;;;;9.63;2.40;;;;;;;;;;4990060;28;20048;-66
2022/05/12 07:44:38;;;;;;;6.40;2.00;;;;;;;;;;4991289;28;20840;-66
2022/05/12 07:47:13;;;;;;;7.57;1.60;;;;;;;;;;4992729;28;20041;-68
2022/05/12 07:49:39;;;;;;;8.27;1.75;;;;;;;;;;4990748;28;20905;-67
2022/05/12 07:52:06;;;;;;;7.63;1.75;;;;;;;;;;5000760;28;20145;-68
2022/05/12 07:54:31;;;;;;;6.97;1.65;;;;;;;;;;4994916;28;20119;-69
2022/05/12 07:56:57;;;;;;;9.82;1.88;;;;;;;;;;4998483;28;20045;-71
2022/05/12 07:59:27;;;;;;;10.05;1.70;;;;;;;;;;5000204;28;20118;-69
2022/05/12 08:01:56;;;;;;;8.93;1.67;;;;;;;;;;4998059;28;20191;-71
2022/05/12 08:04:21;;;;;;;6.80;1.60;;;;;;;;;;4998248;28;21258;-72
2022/05/12 08:06:47;;;;;;;8.40;1.90;;;;;;;;;;4995999;28;20047;-71
2022/05/12 08:09:13;;;;;;;7.82;1.83;;;;;;;;;;4995939;28;20815;-71
2022/05/12 08:11:39;;;;;;;8.30;1.77;;;;;;;;;;4997821;28;20045;-69
2022/05/12 08:14:07;;;;;;;22.15;2.80;;;;;;;;;;4989836;28;20033;-72
2022/05/12 08:16:33;;;;;;;10.10;2.20;;;;;;;;;;4992292;28;20136;-70
2022/05/12 08:18:59;;;;;;;6.38;1.60;;;;;;;;;;4998036;28;20041;-71
2022/05/12 08:21:26;;;;;;;9.02;1.98;;;;;;;;;;5000868;28;20044;-70
2022/05/12 08:23:52;;;;;;;11.15;1.70;;;;;;;;;;4996248;28;20856;-70
2022/05/12 08:26:20;;;;;;;7.78;1.80;;;;;;;;;;4995622;28;20030;-71
2022/05/12 08:28:49;;;;;;;7.88;1.75;;;;;;;;;;4995831;28;20209;-75
2022/05/12 08:31:14;;;;;;;7.53;1.85;;;;;;;;;;4999369;28;21064;-70
2022/05/12 08:33:40;;;;;;;7.55;1.70;;;;;;;;;;5000281;28;20040;-68
2022/05/12 08:36:06;;;;;;;9.50;2.08;;;;;;;;;;4996712;28;20127;-71
2022/05/12 08:38:32;;;;;;;6.97;1.90;;;;;;;;;;4987611;28;20066;-68
2022/05/12 08:40:57;;;;;;;8.93;2.28;;;;;;;;;;5003891;28;20036;-68
2022/05/12 08:43:28;;;;;;;4.90;1.63;;;;;;;;;;4996885;28;20044;-71
2022/05/12 08:45:56;;;;;;;7.25;1.77;;;;;;;;;;4999031;28;20044;-71
2022/05/12 08:48:22;;;;;;;7.47;1.70;;;;;;;;;;4998307;28;20811;-72
2022/05/12 08:50:50;;;;;;;5.85;1.70;;;;;;;;;;5010977;28;20036;-70
2022/05/12 08:53:17;;;;;;;11.75;2.50;;;;;;;;;;4995285;28;20053;-70
2022/05/12 08:55:46;;;;;;;8.02;2.30;;;;;;;;;;4995167;28;20558;-67
2022/05/12 08:58:17;;;;;;;8.90;2.00;;;;;;;;;;4993525;28;20033;-68
2022/05/12 09:00:49;;;;;;;8.48;1.92;;;;;;;;;;4994097;28;20052;-68
2022/05/12 09:03:23;;;;;;;8.15;2.47;;;;;;;;;;4969534;28;20342;-69
2022/05/12 09:06:03;;;;;;;9.57;1.88;;;;;;;;;;4992515;28;20040;-71
2022/05/12 09:08:31;;;;;;;9.73;2.10;;;;;;;;;;4995669;28;20041;-75
2022/05/12 09:10:56;;;;;;;6.95;1.80;;;;;;;;;;4995043;28;20066;-72
2022/05/12 09:13:33;;;;;;;6.22;1.70;;;;;;;;;;4994462;28;20041;-73
2022/05/12 09:16:10;;;;;;;6.93;1.88;;;;;;;;;;4994846;28;20388;-74
2022/05/12 09:18:36;;;;;;;7.65;1.95;;;;;;;;;;4991829;28;20267;-74
2022/05/12 09:21:08;;;;;;;7.22;1.60;;;;;;;;;;5003533;28;20045;-74
2022/05/12 09:23:33;;;;;;;6.10;1.80;;;;;;;;;;4991399;28;20048;-74
2022/05/12 09:25:59;;;;;;;8.68;2.25;;;;;;;;;;4991757;28;20040;-72
2022/05/12 09:28:35;;;;;;;8.65;2.00;;;;;;;;;;4994510;28;20064;-73
2022/05/12 09:31:02;;;;;;;8.98;2.03;;;;;;;;;;4994763;28;20164;-71
2022/05/12 09:33:34;;;;;;;6.38;1.80;;;;;;;;;;4992519;28;20280;-71
2022/05/12 09:36:01;;;;;;;6.72;1.75;;;;;;;;;;5005325;28;20054;-71
2022/05/12 09:38:29;;;;;;;7.15;1.83;;;;;;;;;;5010061;28;20501;-70
2022/05/12 09:40:55;;;;;;;6.65;1.77;;;;;;;;;;4998026;28;20030;-74
2022/05/12 09:43:29;;;;;;;12.05;1.70;;;;;;;;;;5011923;28;20080;-73
2022/05/12 09:46:13;;;;;;;7.07;1.95;;;;;;;;;;4996560;28;20034;-71
2022/05/12 09:48:43;;;;;;;9.50;2.13;;;;;;;;;;4994746;28;20037;-71
2022/05/12 09:51:29;;;;;;;7.97;1.70;;;;;;;;;;4992339;28;22339;-70
2022/05/12 09:54:13;;;;;;;7.78;1.92;;;;;;;;;;5010191;28;20926;-70
2022/05/12 09:56:39;;;;;;;7.75;2.10;;;;;;;;;;4997734;28;20037;-69
2022/05/12 09:59:16;;;;;;;13.43;2.00;;;;;;;;;;4998550;28;20901;-68
2022/05/12 10:01:52;;;;;;;8.82;2.13;;;;;;;;;;4992241;28;20103;-70
2022/05/12 10:10:05;;;;;;;10.10;1.90;;;;;;;;;;4976441;28;20608;-69
2022/05/12 10:12:34;;;;;;;11.77;1.90;;;;;;;;;;4995414;28;20040;-68
2022/05/12 10:15:07;;;;;;;7.47;1.90;;;;;;;;;;4995798;28;20145;-72
2022/05/12 10:17:43;;;;;;;16.30;2.08;;;;;;;;;;4997055;28;20036;-69
2022/05/12 10:20:11;;;;;;;7.50;2.17;;;;;;;;;;4992955;28;20082;-69
2022/05/12 10:22:39;;;;;;;7.68;1.70;;;;;;;;;;4997368;28;20281;-69
2022/05/12 10:25:05;;;;;;;8.50;1.70;;;;;;;;;;4993980;28;20131;-69
2022/05/12 10:27:39;;;;;;;7.07;1.92;;;;;;;;;;4997665;28;20048;-70
2022/05/12 10:30:21;;;;;;;6.95;1.60;;;;;;;;;;4996667;28;22435;-71
2022/05/12 10:32:56;;;;;;;4.35;1.40;;;;;;;;;;4996859;28;20113;-70
2022/05/12 10:35:48;;;;;;;5.43;1.42;;;;;;;;;;4991245;28;20336;-70
2022/05/12 10:38:28;;;;;;;8.98;1.70;;;;;;;;;;4980054;28;20055;-67
2022/05/12 10:41:23;;;;;;;5.57;1.40;;;;;;;;;;4991714;28;20241;-69
2022/05/12 10:43:58;;;;;;;6.43;1.90;;;;;;;;;;4985109;28;20815;-68
2022/05/12 10:46:36;;;;;;;12.65;1.98;;;;;;;;;;4991924;28;20037;-69
2022/05/12 10:49:19;;;;;;;10.60;1.95;;;;;;;;;;4989592;28;20144;-71
2022/05/12 10:52:15;;;;;;;9.18;1.85;;;;;;;;;;4999735;28;20037;-69
2022/05/12 10:55:02;;;;;;;4.97;1.58;;;;;;;;;;4999028;28;20140;-68
2022/05/12 10:57:49;;;;;;;6.95;1.85;;;;;;;;;;4994537;28;20982;-67
2022/05/12 11:00:29;;;;;;;9.25;1.95;;;;;;;;;;4990284;28;20185;-66
2022/05/12 11:02:59;;;;;;;13.05;2.15;;;;;;;;;;4994603;28;20045;-66
2022/05/12 11:05:24;;;;;;;14.10;1.95;;;;;;;;;;4993902;28;20036;-67
2022/05/12 11:07:54;;;;;;;9.43;2.10;;;;;;;;;;4994506;28;20034;-71
2022/05/12 11:10:22;;;;;;;5.72;1.77;;;;;;;;;;4996403;28;20056;-68
2022/05/12 11:12:51;;;;;;;9.25;2.40;;;;;;;;;;4997330;28;20036;-69
2022/05/12 11:15:41;;;;;;;9.02;2.13;;;;;;;;;;4997354;28;20720;-69
2022/05/12 11:18:13;;;;;;;10.32;1.98;;;;;;;;;;4994039;28;20053;-73
2022/05/12 11:20:44;;;;;;;8.27;2.08;;;;;;;;;;4993252;28;20036;-71
2022/05/12 11:23:28;;;;;;;8.98;2.10;;;;;;;;;;4995665;28;20044;-71
2022/05/12 11:26:28;;;;;;;8.68;2.28;;;;;;;;;;4998532;28;20037;-72
2022/05/12 11:31:52;;;;;;;8.63;2.30;;;;;;;;;;4998237;28;20064;-70
2022/05/12 11:34:20;;;;;;;10.95;2.20;;;;;;;;;;4994647;28;20355;-68
2022/05/12 11:36:49;;;;;;;10.60;2.20;;;;;;;;;;4997121;28;20030;-70
2022/05/12 11:39:21;;;;;;;7.30;2.13;;;;;;;;;;5000168;28;20142;-69
2022/05/12 11:41:46;;;;;;;10.15;2.20;;;;;;;;;;4999458;28;20033;-68
2022/05/12 11:44:34;;;;;;;9.23;2.50;;;;;;;;;;4998480;28;20095;-68
2022/05/12 11:47:03;;;;;;;8.98;2.10;;;;;;;;;;5000603;28;20045;-72
2022/05/12 11:49:31;;;;;;;10.93;2.40;;;;;;;;;;4996309;28;20029;-68
2022/05/12 11:52:15;;;;;;;11.73;2.85;;;;;;;;;;4996707;28;20516;-67
2022/05/12 11:54:48;;;;;;;7.60;1.92;;;;;;;;;;4998140;28;20039;-69
2022/05/12 11:57:23;;;;;;;10.85;1.92;;;;;;;;;;4997020;28;20098;-69
2022/05/12 11:59:55;;;;;;;10.13;2.08;;;;;;;;;;4999277;28;20957;-69
2022/05/12 12:02:29;;;;;;;7.60;2.17;;;;;;;;;;5001387;28;22239;-72
2022/05/12 12:04:56;;;;;;;12.93;2.10;;;;;;;;;;4998799;28;20041;-70
2022/05/12 12:07:27;;;;;;;7.65;2.10;;;;;;;;;;4999852;28;20034;-70
2022/05/12 12:09:56;;;;;;;9.52;1.88;;;;;;;;;;4998573;28;20033;-69
2022/05/12 12:12:40;;;;;;;8.50;1.77;;;;;;;;;;4997933;28;20040;-70
2022/05/12 12:15:09;;;;;;;6.38;2.15;;;;;;;;;;4998394;28;20041;-69
2022/05/12 12:17:39;;;;;;;7.80;2.20;;;;;;;;;;4973213;28;20573;-70
2022/05/12 12:20:09;;;;;;;8.93;2.08;;;;;;;;;;4994602;28;20671;-70
2022/05/12 12:22:37;;;;;;;6.28;1.92;;;;;;;;;;5012682;28;20056;-69
2022/05/12 12:25:09;;;;;;;12.13;2.17;;;;;;;;;;4997315;28;20038;-71
2022/05/12 12:27:40;;;;;;;14.32;2.35;;;;;;;;;;4999475;28;20041;-68
2022/05/12 12:30:24;;;;;;;12.43;1.80;;;;;;;;;;4996772;28;20889;-69
2022/05/12 12:33:13;;;;;;;10.93;2.17;;;;;;;;;;4998665;28;20474;-70
2022/05/12 12:35:49;;;;;;;7.95;1.75;;;;;;;;;;4995501;28;20033;-74
2022/05/12 12:38:34;;;;;;;8.55;1.92;;;;;;;;;;4998836;28;20893;-68
2022/05/12 12:40:59;;;;;;;11.35;1.80;;;;;;;;;;4998840;28;20040;-70
2022/05/12 12:43:33;;;;;;;8.02;1.65;;;;;;;;;;4998495;28;20037;-68
2022/05/12 12:46:09;;;;;;;13.15;2.30;;;;;;;;;;5000494;28;20802;-71
2022/05/12 12:48:40;;;;;;;11.48;2.20;;;;;;;;;;4998069;28;20035;-68
2022/05/12 12:51:05;;;;;;;10.60;1.98;;;;;;;;;;4996175;28;20081;-67
2022/05/12 12:56:30;;;;;;;9.35;2.00;;;;;;;;;;4995139;28;20069;-67
2022/05/12 12:58:58;;;;;;;10.75;1.95;;;;;;;;;;4998966;28;20818;-71
2022/05/12 13:01:36;;;;;;;15.95;2.03;;;;;;;;;;5011897;28;21044;-66
2022/05/12 13:04:01;;;;;;;13.40;2.00;;;;;;;;;;4997742;28;20915;-68
2022/05/12 13:06:30;;;;;;;9.98;2.03;;;;;;;;;;4999686;28;20037;-69
2022/05/12 13:09:00;;;;;;;11.32;2.00;;;;;;;;;;4995484;28;20061;-68
2022/05/12 13:11:28;;;;;;;8.75;1.90;;;;;;;;;;4994611;28;20431;-67
2022/05/12 13:13:54;;;;;;;7.35;1.90;;;;;;;;;;4997146;28;20248;-69
2022/05/12 13:16:21;;;;;;;14.70;2.22;;;;;;;;;;4995085;28;20080;-69
2022/05/12 13:18:50;;;;;;;12.63;2.08;;;;;;;;;;4993155;28;20840;-65
2022/05/12 13:21:20;;;;;;;14.70;2.10;;;;;;;;;;4994598;28;20033;-65
2022/05/12 13:23:56;;;;;;;17.70;2.30;;;;;;;;;;4996339;28;20541;-64
2022/05/12 13:26:22;;;;;;;8.80;2.10;;;;;;;;;;4993176;28;20032;-64
2022/05/12 13:28:47;;;;;;;12.45;2.08;;;;;;;;;;4992390;28;20067;-66
2022/05/12 13:31:18;;;;;;;16.10;2.92;;;;;;;;;;4993513;28;20432;-64
2022/05/12 13:34:04;;;;;;;11.80;2.78;;;;;;;;;;4992988;28;20563;-65
2022/05/12 13:36:44;;;;;;;10.40;2.42;;;;;;;;;;4993173;28;20033;-65
2022/05/12 13:39:10;;;;;;;11.07;2.55;;;;;;;;;;4993048;28;20417;-67
2022/05/12 13:41:43;;;;;;;12.82;2.65;;;;;;;;;;4990944;28;20033;-72
2022/05/12 13:44:18;;;;;;;16.02;2.72;;;;;;;;;;4992592;28;20071;-69
2022/05/12 13:46:48;;;;;;;12.15;2.92;;;;;;;;;;4992486;28;20222;-68
2022/05/12 13:49:13;;;;;;;17.90;3.47;;;;;;;;;;4993586;28;20037;-67
2022/05/12 13:51:39;;;;;;;14.23;3.00;;;;;;;;;;4995027;28;20103;-68
2022/05/12 13:54:08;;;;;;;17.15;3.35;;;;;;;;;;4991739;28;20398;-67
2022/05/12 13:56:34;;;;;;;17.27;3.60;;;;;;;;;;4992533;28;20044;-66
2022/05/12 13:59:12;;;;;;;17.60;3.78;;;;;;;;;;4992652;28;20291;-67
2022/05/12 14:01:38;;;;;;;15.70;3.60;;;;;;;;;;4991022;28;20255;-67
2022/05/12 14:04:18;;;;;;;14.82;3.83;;;;;;;;;;4983642;28;20428;-68
2022/05/12 14:06:48;;;;;;;15.25;3.53;;;;;;;;;;4993543;28;20058;-68
2022/05/12 14:09:18;;;;;;;15.65;3.60;;;;;;;;;;4996207;28;20034;-69
2022/05/12 14:11:55;;;;;;;14.32;3.78;;;;;;;;;;4992096;28;20136;-68
2022/05/12 14:20:01;;;;;;;11.98;3.65;;;;;;;;;;4996424;28;22790;-67
2022/05/12 14:22:26;;;;;;;13.43;4.10;;;;;;;;;;4992949;28;20129;-70
2022/05/12 14:24:54;;;;;;;9.35;3.00;;;;;;;;;;4995576;28;20045;-70
2022/05/12 14:27:19;;;;;;;14.23;3.63;;;;;;;;;;5009787;28;20041;-71
2022/05/12 14:29:45;;;;;;;11.65;3.35;;;;;;;;;;4994859;28;20282;-71
2022/05/12 14:32:14;;;;;;;13.27;3.10;;;;;;;;;;4993991;28;20768;-70
2022/05/12 14:34:40;;;;;;;14.32;3.20;;;;;;;;;;4994794;28;20048;-70
2022/05/12 14:37:06;;;;;;;13.70;3.63;;;;;;;;;;4994484;28;20124;-71
2022/05/12 14:39:33;;;;;;;10.98;3.42;;;;;;;;;;4995587;28;20040;-71
2022/05/12 14:42:01;;;;;;;12.00;2.97;;;;;;;;;;5010245;28;20033;-73
2022/05/12 14:44:27;;;;;;;11.98;2.92;;;;;;;;;;4996570;28;20050;-71
2022/05/12 14:46:56;;;;;;;13.38;2.75;;;;;;;;;;4994575;28;20030;-72
2022/05/12 14:49:39;;;;;;;9.65;2.83;;;;;;;;;;4990878;28;20057;-73
2022/05/12 14:52:13;;;;;;;10.25;2.42;;;;;;;;;;4990323;28;20318;-71
2022/05/12 14:54:41;;;;;;;10.20;2.38;;;;;;;;;;4994345;28;20051;-71
2022/05/12 14:57:06;;;;;;;10.38;2.65;;;;;;;;;;4988353;28;20473;-71
2022/05/12 14:59:32;;;;;;;10.88;2.78;;;;;;;;;;4974303;28;20091;-72
2022/05/12 15:01:59;;;;;;;13.55;2.92;;;;;;;;;;4996894;28;20407;-70
2022/05/12 15:04:30;;;;;;;10.35;2.63;;;;;;;;;;4995748;28;21875;-71
2022/05/12 15:06:58;;;;;;;9.02;2.20;;;;;;;;;;4995984;28;20033;-69
2022/05/12 15:09:24;;;;;;;11.32;2.78;;;;;;;;;;4997062;28;20497;-72
2022/05/12 15:11:49;;;;;;;10.60;2.60;;;;;;;;;;4994146;28;20099;-72